sensor_id;sensor_type;location;lat;lon;timestamp;P1;durP1;ratioP1;P2;durP2;ratioP2
50900;SDS011;36879;51.416;6.678;2023-05-25T00:01:38;18.80;;;6.80;;
50900;SDS011;36879;51.416;6.678;2023-05-25T00:04:07;17.60;;;6.47;;
50900;SDS011;36879;51.416;6.678;2023-05-25T00:06:34;12.00;;;6.45;;
50900;SDS011;36879;51.416;6.678;2023-05-25T00:09:05;13.90;;;6.88;;
50900;SDS011;36879;51.416;6.678;2023-05-25T00:11:31;13.75;;;6.30;;
50900;SDS011;36879;51.416;6.678;2023-05-25T00:13:57;16.08;;;7.07;;
50900;SDS011;36879;51.416;6.678;2023-05-25T00:17:46;18.10;;;6.90;;
50900;SDS011;36879;51.416;6.678;2023-05-25T00:20:13;14.73;;;6.95;;
50900;SDS011;36879;51.416;6.678;2023-05-25T00:22:41;17.83;;;6.93;;
50900;SDS011;36879;51.416;6.678;2023-05-25T00:25:09;16.40;;;7.25;;
50900;SDS011;36879;51.416;6.678;2023-05-25T00:27:35;13.43;;;6.93;;
50900;SDS011;36879;51.416;6.678;2023-05-25T00:30:01;11.45;;;6.10;;
50900;SDS011;36879;51.416;6.678;2023-05-25T00:32:27;16.58;;;5.80;;
50900;SDS011;36879;51.416;6.678;2023-05-25T00:34:53;18.50;;;7.43;;
50900;SDS011;36879;51.416;6.678;2023-05-25T00:37:20;17.90;;;6.60;;
50900;SDS011;36879;51.416;6.678;2023-05-25T00:39:46;14.02;;;6.65;;
50900;SDS011;36879;51.416;6.678;2023-05-25T00:42:11;15.35;;;6.72;;
50900;SDS011;36879;51.416;6.678;2023-05-25T00:44:37;11.30;;;6.00;;
50900;SDS011;36879;51.416;6.678;2023-05-25T00:47:03;12.35;;;6.72;;
50900;SDS011;36879;51.416;6.678;2023-05-25T00:49:30;21.80;;;6.45;;
50900;SDS011;36879;51.416;6.678;2023-05-25T00:51:57;20.98;;;7.43;;
50900;SDS011;36879;51.416;6.678;2023-05-25T00:54:23;10.65;;;5.90;;
50900;SDS011;36879;51.416;6.678;2023-05-25T00:56:56;19.10;;;6.95;;
50900;SDS011;36879;51.416;6.678;2023-05-25T00:59:32;14.35;;;6.72;;
50900;SDS011;36879;51.416;6.678;2023-05-25T01:02:02;16.98;;;6.55;;
50900;SDS011;36879;51.416;6.678;2023-05-25T01:04:33;12.30;;;6.28;;
50900;SDS011;36879;51.416;6.678;2023-05-25T01:06:59;11.32;;;5.95;;
50900;SDS011;36879;51.416;6.678;2023-05-25T01:09:26;21.27;;;6.50;;
50900;SDS011;36879;51.416;6.678;2023-05-25T01:11:52;24.27;;;6.72;;
50900;SDS011;36879;51.416;6.678;2023-05-25T01:14:20;20.80;;;8.15;;
50900;SDS011;36879;51.416;6.678;2023-05-25T01:16:47;18.20;;;7.57;;
50900;SDS011;36879;51.416;6.678;2023-05-25T01:19:13;21.88;;;8.23;;
50900;SDS011;36879;51.416;6.678;2023-05-25T01:22:00;14.10;;;7.40;;
50900;SDS011;36879;51.416;6.678;2023-05-25T01:27:56;16.38;;;8.25;;
50900;SDS011;36879;51.416;6.678;2023-05-25T01:30:03;14.05;;;8.18;;
50900;SDS011;36879;51.416;6.678;2023-05-25T01:32:30;18.38;;;7.60;;
50900;SDS011;36879;51.416;6.678;2023-05-25T01:34:57;17.42;;;8.75;;
50900;SDS011;36879;51.416;6.678;2023-05-25T01:37:24;19.55;;;8.15;;
50900;SDS011;36879;51.416;6.678;2023-05-25T01:39:52;16.58;;;7.60;;
50900;SDS011;36879;51.416;6.678;2023-05-25T01:42:18;19.38;;;8.43;;
50900;SDS011;36879;51.416;6.678;2023-05-25T01:44:44;23.25;;;8.25;;
50900;SDS011;36879;51.416;6.678;2023-05-25T01:47:21;18.58;;;8.65;;
50900;SDS011;36879;51.416;6.678;2023-05-25T01:52:21;16.38;;;9.13;;
50900;SDS011;36879;51.416;6.678;2023-05-25T01:54:58;16.27;;;7.53;;
50900;SDS011;36879;51.416;6.678;2023-05-25T01:57:25;16.02;;;7.47;;
50900;SDS011;36879;51.416;6.678;2023-05-25T01:59:54;18.92;;;7.93;;
50900;SDS011;36879;51.416;6.678;2023-05-25T02:02:24;23.85;;;9.50;;
50900;SDS011;36879;51.416;6.678;2023-05-25T02:04:52;21.00;;;8.73;;
50900;SDS011;36879;51.416;6.678;2023-05-25T02:07:21;21.38;;;8.25;;
50900;SDS011;36879;51.416;6.678;2023-05-25T02:09:47;14.00;;;8.38;;
50900;SDS011;36879;51.416;6.678;2023-05-25T02:12:13;19.98;;;8.68;;
50900;SDS011;36879;51.416;6.678;2023-05-25T02:14:39;21.13;;;8.40;;
50900;SDS011;36879;51.416;6.678;2023-05-25T02:17:05;17.70;;;8.98;;
50900;SDS011;36879;51.416;6.678;2023-05-25T02:19:31;16.48;;;9.30;;
50900;SDS011;36879;51.416;6.678;2023-05-25T02:21:57;18.27;;;8.38;;
50900;SDS011;36879;51.416;6.678;2023-05-25T02:24:23;16.27;;;8.25;;
50900;SDS011;36879;51.416;6.678;2023-05-25T02:26:49;17.33;;;8.68;;
50900;SDS011;36879;51.416;6.678;2023-05-25T02:29:15;22.25;;;9.77;;
50900;SDS011;36879;51.416;6.678;2023-05-25T02:31:41;19.50;;;9.25;;
50900;SDS011;36879;51.416;6.678;2023-05-25T02:34:07;16.13;;;8.90;;
50900;SDS011;36879;51.416;6.678;2023-05-25T02:36:33;19.67;;;9.40;;
50900;SDS011;36879;51.416;6.678;2023-05-25T02:39:00;23.60;;;10.07;;
50900;SDS011;36879;51.416;6.678;2023-05-25T02:41:26;23.58;;;8.95;;
50900;SDS011;36879;51.416;6.678;2023-05-25T02:43:52;19.45;;;10.32;;
50900;SDS011;36879;51.416;6.678;2023-05-25T02:46:18;19.67;;;10.02;;
50900;SDS011;36879;51.416;6.678;2023-05-25T02:48:46;23.50;;;9.70;;
50900;SDS011;36879;51.416;6.678;2023-05-25T02:51:12;14.55;;;8.13;;
50900;SDS011;36879;51.416;6.678;2023-05-25T02:53:38;16.98;;;8.70;;
50900;SDS011;36879;51.416;6.678;2023-05-25T02:56:04;16.02;;;8.82;;
50900;SDS011;36879;51.416;6.678;2023-05-25T02:58:30;22.98;;;8.93;;
50900;SDS011;36879;51.416;6.678;2023-05-25T03:00:56;14.75;;;9.07;;
50900;SDS011;36879;51.416;6.678;2023-05-25T03:03:24;18.02;;;9.90;;
50900;SDS011;36879;51.416;6.678;2023-05-25T03:05:50;19.67;;;9.13;;
50900;SDS011;36879;51.416;6.678;2023-05-25T03:08:16;22.58;;;9.63;;
50900;SDS011;36879;51.416;6.678;2023-05-25T03:10:43;21.05;;;10.68;;
50900;SDS011;36879;51.416;6.678;2023-05-25T03:13:09;16.75;;;9.07;;
50900;SDS011;36879;51.416;6.678;2023-05-25T03:15:35;16.45;;;9.38;;
50900;SDS011;36879;51.416;6.678;2023-05-25T03:18:01;17.08;;;10.20;;
50900;SDS011;36879;51.416;6.678;2023-05-25T03:20:27;24.20;;;10.48;;
50900;SDS011;36879;51.416;6.678;2023-05-25T03:22:53;27.38;;;9.95;;
50900;SDS011;36879;51.416;6.678;2023-05-25T03:25:20;13.73;;;8.30;;
50900;SDS011;36879;51.416;6.678;2023-05-25T03:27:46;19.92;;;9.65;;
50900;SDS011;36879;51.416;6.678;2023-05-25T03:30:12;19.10;;;9.02;;
50900;SDS011;36879;51.416;6.678;2023-05-25T03:32:38;17.42;;;8.98;;
50900;SDS011;36879;51.416;6.678;2023-05-25T03:35:04;24.05;;;10.63;;
50900;SDS011;36879;51.416;6.678;2023-05-25T03:37:30;20.48;;;9.90;;
50900;SDS011;36879;51.416;6.678;2023-05-25T03:39:56;22.10;;;10.02;;
50900;SDS011;36879;51.416;6.678;2023-05-25T03:42:22;25.83;;;9.35;;
50900;SDS011;36879;51.416;6.678;2023-05-25T03:44:48;22.77;;;10.38;;
50900;SDS011;36879;51.416;6.678;2023-05-25T03:47:14;21.70;;;10.55;;
50900;SDS011;36879;51.416;6.678;2023-05-25T03:49:40;22.45;;;10.30;;
50900;SDS011;36879;51.416;6.678;2023-05-25T03:52:06;26.60;;;11.40;;
50900;SDS011;36879;51.416;6.678;2023-05-25T03:54:32;18.73;;;10.25;;
50900;SDS011;36879;51.416;6.678;2023-05-25T03:56:58;27.67;;;11.27;;
50900;SDS011;36879;51.416;6.678;2023-05-25T03:59:25;22.40;;;11.82;;
50900;SDS011;36879;51.416;6.678;2023-05-25T04:01:51;28.45;;;13.77;;
50900;SDS011;36879;51.416;6.678;2023-05-25T04:04:17;26.67;;;12.93;;
50900;SDS011;36879;51.416;6.678;2023-05-25T04:06:43;32.88;;;12.82;;
50900;SDS011;36879;51.416;6.678;2023-05-25T04:09:16;23.45;;;12.77;;
50900;SDS011;36879;51.416;6.678;2023-05-25T04:11:45;27.48;;;12.57;;
50900;SDS011;36879;51.416;6.678;2023-05-25T04:14:11;24.58;;;13.32;;
50900;SDS011;36879;51.416;6.678;2023-05-25T04:16:37;29.90;;;13.70;;
50900;SDS011;36879;51.416;6.678;2023-05-25T04:19:06;22.92;;;11.82;;
50900;SDS011;36879;51.416;6.678;2023-05-25T04:21:32;30.92;;;13.10;;
50900;SDS011;36879;51.416;6.678;2023-05-25T04:23:58;24.70;;;12.93;;
50900;SDS011;36879;51.416;6.678;2023-05-25T04:26:25;27.13;;;13.00;;
50900;SDS011;36879;51.416;6.678;2023-05-25T04:28:51;36.90;;;15.63;;
50900;SDS011;36879;51.416;6.678;2023-05-25T04:31:20;24.20;;;13.50;;
50900;SDS011;36879;51.416;6.678;2023-05-25T04:33:48;24.77;;;13.25;;
50900;SDS011;36879;51.416;6.678;2023-05-25T04:36:14;30.67;;;14.57;;
50900;SDS011;36879;51.416;6.678;2023-05-25T04:38:40;29.80;;;13.98;;
50900;SDS011;36879;51.416;6.678;2023-05-25T04:41:06;23.38;;;13.65;;
50900;SDS011;36879;51.416;6.678;2023-05-25T04:43:32;25.15;;;11.82;;
50900;SDS011;36879;51.416;6.678;2023-05-25T04:45:58;22.92;;;11.10;;
50900;SDS011;36879;51.416;6.678;2023-05-25T04:48:25;30.35;;;11.02;;
50900;SDS011;36879;51.416;6.678;2023-05-25T04:50:56;26.98;;;11.35;;
50900;SDS011;36879;51.416;6.678;2023-05-25T04:53:26;23.67;;;11.25;;
50900;SDS011;36879;51.416;6.678;2023-05-25T04:55:52;20.23;;;9.88;;
50900;SDS011;36879;51.416;6.678;2023-05-25T04:58:19;20.50;;;10.85;;
50900;SDS011;36879;51.416;6.678;2023-05-25T05:00:45;23.10;;;9.90;;
50900;SDS011;36879;51.416;6.678;2023-05-25T05:03:11;20.50;;;10.13;;
50900;SDS011;36879;51.416;6.678;2023-05-25T05:05:37;20.25;;;10.60;;
50900;SDS011;36879;51.416;6.678;2023-05-25T05:08:03;23.63;;;10.65;;
50900;SDS011;36879;51.416;6.678;2023-05-25T05:10:29;18.80;;;10.30;;
50900;SDS011;36879;51.416;6.678;2023-05-25T05:12:55;22.60;;;9.52;;
50900;SDS011;36879;51.416;6.678;2023-05-25T05:15:21;22.20;;;10.02;;
50900;SDS011;36879;51.416;6.678;2023-05-25T05:17:47;22.08;;;9.80;;
50900;SDS011;36879;51.416;6.678;2023-05-25T05:20:13;19.10;;;8.75;;
50900;SDS011;36879;51.416;6.678;2023-05-25T05:22:39;21.90;;;9.32;;
50900;SDS011;36879;51.416;6.678;2023-05-25T05:25:05;16.95;;;8.80;;
50900;SDS011;36879;51.416;6.678;2023-05-25T05:27:32;24.15;;;9.20;;
50900;SDS011;36879;51.416;6.678;2023-05-25T05:29:58;21.88;;;9.52;;
50900;SDS011;36879;51.416;6.678;2023-05-25T05:32:24;18.52;;;10.35;;
50900;SDS011;36879;51.416;6.678;2023-05-25T05:34:50;20.83;;;9.13;;
50900;SDS011;36879;51.416;6.678;2023-05-25T05:37:16;24.17;;;10.55;;
50900;SDS011;36879;51.416;6.678;2023-05-25T05:39:41;23.50;;;10.27;;
50900;SDS011;36879;51.416;6.678;2023-05-25T05:42:07;23.67;;;10.90;;
50900;SDS011;36879;51.416;6.678;2023-05-25T05:44:34;30.02;;;10.20;;
50900;SDS011;36879;51.416;6.678;2023-05-25T05:47:00;25.35;;;10.90;;
50900;SDS011;36879;51.416;6.678;2023-05-25T05:49:26;26.15;;;10.85;;
50900;SDS011;36879;51.416;6.678;2023-05-25T05:51:52;29.35;;;9.80;;
50900;SDS011;36879;51.416;6.678;2023-05-25T05:54:18;27.63;;;10.45;;
50900;SDS011;36879;51.416;6.678;2023-05-25T05:56:44;26.35;;;12.15;;
50900;SDS011;36879;51.416;6.678;2023-05-25T05:59:10;21.83;;;11.35;;
50900;SDS011;36879;51.416;6.678;2023-05-25T06:01:36;24.77;;;11.13;;
50900;SDS011;36879;51.416;6.678;2023-05-25T06:04:04;21.83;;;11.57;;
50900;SDS011;36879;51.416;6.678;2023-05-25T06:06:30;20.33;;;10.60;;
50900;SDS011;36879;51.416;6.678;2023-05-25T06:08:58;23.92;;;10.25;;
50900;SDS011;36879;51.416;6.678;2023-05-25T06:11:25;28.05;;;11.95;;
50900;SDS011;36879;51.416;6.678;2023-05-25T06:13:51;26.13;;;11.13;;
50900;SDS011;36879;51.416;6.678;2023-05-25T06:16:18;18.63;;;11.55;;
50900;SDS011;36879;51.416;6.678;2023-05-25T06:18:44;16.63;;;9.77;;
50900;SDS011;36879;51.416;6.678;2023-05-25T06:21:10;20.52;;;10.13;;
50900;SDS011;36879;51.416;6.678;2023-05-25T06:23:36;21.42;;;10.75;;
50900;SDS011;36879;51.416;6.678;2023-05-25T06:26:05;22.73;;;10.73;;
50900;SDS011;36879;51.416;6.678;2023-05-25T06:28:31;25.83;;;11.35;;
50900;SDS011;36879;51.416;6.678;2023-05-25T06:30:57;21.73;;;9.52;;
50900;SDS011;36879;51.416;6.678;2023-05-25T06:33:23;19.02;;;10.38;;
50900;SDS011;36879;51.416;6.678;2023-05-25T06:35:49;17.88;;;9.65;;
50900;SDS011;36879;51.416;6.678;2023-05-25T06:38:16;16.00;;;9.02;;
50900;SDS011;36879;51.416;6.678;2023-05-25T06:40:42;24.45;;;9.93;;
50900;SDS011;36879;51.416;6.678;2023-05-25T06:43:08;17.90;;;10.15;;
50900;SDS011;36879;51.416;6.678;2023-05-25T06:45:34;25.17;;;9.93;;
50900;SDS011;36879;51.416;6.678;2023-05-25T06:48:00;22.05;;;10.20;;
50900;SDS011;36879;51.416;6.678;2023-05-25T06:50:26;20.70;;;9.10;;
50900;SDS011;36879;51.416;6.678;2023-05-25T06:52:52;23.67;;;9.23;;
50900;SDS011;36879;51.416;6.678;2023-05-25T06:55:18;14.85;;;8.98;;
50900;SDS011;36879;51.416;6.678;2023-05-25T06:57:44;17.67;;;8.57;;
50900;SDS011;36879;51.416;6.678;2023-05-25T07:00:10;19.90;;;8.73;;
50900;SDS011;36879;51.416;6.678;2023-05-25T07:02:37;16.60;;;8.13;;
50900;SDS011;36879;51.416;6.678;2023-05-25T07:05:03;19.95;;;8.52;;
50900;SDS011;36879;51.416;6.678;2023-05-25T07:07:29;18.80;;;8.85;;
50900;SDS011;36879;51.416;6.678;2023-05-25T07:09:55;18.75;;;9.43;;
50900;SDS011;36879;51.416;6.678;2023-05-25T07:12:21;18.30;;;8.05;;
50900;SDS011;36879;51.416;6.678;2023-05-25T07:14:47;19.23;;;8.18;;
50900;SDS011;36879;51.416;6.678;2023-05-25T07:17:14;15.00;;;7.38;;
50900;SDS011;36879;51.416;6.678;2023-05-25T07:19:40;17.58;;;7.68;;
50900;SDS011;36879;51.416;6.678;2023-05-25T07:22:07;15.27;;;7.63;;
50900;SDS011;36879;51.416;6.678;2023-05-25T07:24:36;16.23;;;8.23;;
50900;SDS011;36879;51.416;6.678;2023-05-25T07:27:02;16.13;;;6.45;;
50900;SDS011;36879;51.416;6.678;2023-05-25T07:29:28;13.48;;;7.07;;
50900;SDS011;36879;51.416;6.678;2023-05-25T07:31:54;21.63;;;8.73;;
50900;SDS011;36879;51.416;6.678;2023-05-25T07:34:20;20.00;;;9.30;;
50900;SDS011;36879;51.416;6.678;2023-05-25T07:36:46;16.60;;;8.82;;
50900;SDS011;36879;51.416;6.678;2023-05-25T07:39:12;18.52;;;8.48;;
50900;SDS011;36879;51.416;6.678;2023-05-25T07:41:38;21.90;;;9.32;;
50900;SDS011;36879;51.416;6.678;2023-05-25T07:44:04;17.90;;;10.52;;
50900;SDS011;36879;51.416;6.678;2023-05-25T07:46:30;26.48;;;11.07;;
50900;SDS011;36879;51.416;6.678;2023-05-25T07:48:56;20.98;;;9.50;;
50900;SDS011;36879;51.416;6.678;2023-05-25T07:51:23;11.77;;;7.95;;
50900;SDS011;36879;51.416;6.678;2023-05-25T07:53:53;16.55;;;8.45;;
50900;SDS011;36879;51.416;6.678;2023-05-25T07:56:20;19.42;;;8.75;;
50900;SDS011;36879;51.416;6.678;2023-05-25T07:58:47;16.90;;;8.45;;
50900;SDS011;36879;51.416;6.678;2023-05-25T08:01:13;13.43;;;7.72;;
50900;SDS011;36879;51.416;6.678;2023-05-25T08:03:42;16.52;;;8.45;;
50900;SDS011;36879;51.416;6.678;2023-05-25T08:06:09;15.23;;;7.45;;
50900;SDS011;36879;51.416;6.678;2023-05-25T08:08:35;12.52;;;6.75;;
50900;SDS011;36879;51.416;6.678;2023-05-25T08:11:01;16.27;;;9.20;;
50900;SDS011;36879;51.416;6.678;2023-05-25T08:13:27;12.88;;;8.57;;
50900;SDS011;36879;51.416;6.678;2023-05-25T08:15:53;13.77;;;7.18;;
50900;SDS011;36879;51.416;6.678;2023-05-25T08:18:19;11.77;;;6.50;;
50900;SDS011;36879;51.416;6.678;2023-05-25T08:20:45;13.32;;;7.97;;
50900;SDS011;36879;51.416;6.678;2023-05-25T08:23:11;12.82;;;6.32;;
50900;SDS011;36879;51.416;6.678;2023-05-25T08:25:37;14.80;;;9.32;;
50900;SDS011;36879;51.416;6.678;2023-05-25T08:28:03;17.42;;;9.00;;
50900;SDS011;36879;51.416;6.678;2023-05-25T08:30:29;15.90;;;10.25;;
50900;SDS011;36879;51.416;6.678;2023-05-25T08:32:56;14.48;;;9.18;;
50900;SDS011;36879;51.416;6.678;2023-05-25T08:35:22;23.13;;;12.27;;
50900;SDS011;36879;51.416;6.678;2023-05-25T08:37:48;18.95;;;11.32;;
50900;SDS011;36879;51.416;6.678;2023-05-25T08:40:14;17.80;;;11.25;;
50900;SDS011;36879;51.416;6.678;2023-05-25T08:42:44;17.88;;;11.50;;
50900;SDS011;36879;51.416;6.678;2023-05-25T08:45:10;17.30;;;11.23;;
50900;SDS011;36879;51.416;6.678;2023-05-25T08:47:42;15.30;;;10.80;;
50900;SDS011;36879;51.416;6.678;2023-05-25T08:50:09;15.82;;;11.40;;
50900;SDS011;36879;51.416;6.678;2023-05-25T08:52:39;16.00;;;10.57;;
50900;SDS011;36879;51.416;6.678;2023-05-25T08:55:05;12.77;;;7.47;;
50900;SDS011;36879;51.416;6.678;2023-05-25T08:57:48;12.65;;;8.50;;
50900;SDS011;36879;51.416;6.678;2023-05-25T09:00:19;12.50;;;7.53;;
50900;SDS011;36879;51.416;6.678;2023-05-25T09:03:01;11.23;;;5.88;;
50900;SDS011;36879;51.416;6.678;2023-05-25T09:05:31;11.27;;;4.65;;
50900;SDS011;36879;51.416;6.678;2023-05-25T09:07:57;10.40;;;4.53;;
50900;SDS011;36879;51.416;6.678;2023-05-25T09:10:23;10.43;;;3.63;;
50900;SDS011;36879;51.416;6.678;2023-05-25T09:12:51;13.32;;;3.38;;
50900;SDS011;36879;51.416;6.678;2023-05-25T09:15:18;11.93;;;3.65;;
50900;SDS011;36879;51.416;6.678;2023-05-25T09:17:44;9.23;;;4.65;;
50900;SDS011;36879;51.416;6.678;2023-05-25T09:20:10;8.95;;;3.42;;
50900;SDS011;36879;51.416;6.678;2023-05-25T09:22:37;8.48;;;3.40;;
50900;SDS011;36879;51.416;6.678;2023-05-25T09:25:04;8.27;;;4.00;;
50900;SDS011;36879;51.416;6.678;2023-05-25T09:27:32;12.77;;;5.72;;
50900;SDS011;36879;51.416;6.678;2023-05-25T09:29:59;9.88;;;4.70;;
50900;SDS011;36879;51.416;6.678;2023-05-25T09:32:26;9.30;;;3.92;;
50900;SDS011;36879;51.416;6.678;2023-05-25T09:34:52;11.20;;;4.95;;
50900;SDS011;36879;51.416;6.678;2023-05-25T09:37:20;8.05;;;3.78;;
50900;SDS011;36879;51.416;6.678;2023-05-25T09:39:46;8.68;;;4.00;;
50900;SDS011;36879;51.416;6.678;2023-05-25T09:42:12;10.52;;;4.72;;
50900;SDS011;36879;51.416;6.678;2023-05-25T09:44:38;7.00;;;4.60;;
50900;SDS011;36879;51.416;6.678;2023-05-25T09:47:06;9.55;;;4.47;;
50900;SDS011;36879;51.416;6.678;2023-05-25T09:49:32;8.10;;;4.82;;
50900;SDS011;36879;51.416;6.678;2023-05-25T09:51:59;8.52;;;4.97;;
50900;SDS011;36879;51.416;6.678;2023-05-25T09:54:25;60.80;;;11.30;;
50900;SDS011;36879;51.416;6.678;2023-05-25T09:56:51;18.08;;;5.47;;
50900;SDS011;36879;51.416;6.678;2023-05-25T09:59:17;18.60;;;6.25;;
50900;SDS011;36879;51.416;6.678;2023-05-25T10:01:43;12.32;;;6.70;;
50900;SDS011;36879;51.416;6.678;2023-05-25T10:04:09;9.65;;;5.38;;
50900;SDS011;36879;51.416;6.678;2023-05-25T10:06:36;12.88;;;5.07;;
50900;SDS011;36879;51.416;6.678;2023-05-25T10:09:04;9.25;;;4.63;;
50900;SDS011;36879;51.416;6.678;2023-05-25T10:11:31;10.00;;;4.22;;
50900;SDS011;36879;51.416;6.678;2023-05-25T10:14:00;8.95;;;3.95;;
50900;SDS011;36879;51.416;6.678;2023-05-25T10:16:28;8.18;;;3.63;;
50900;SDS011;36879;51.416;6.678;2023-05-25T10:21:25;9.70;;;3.53;;
50900;SDS011;36879;51.416;6.678;2023-05-25T10:23:53;9.85;;;3.75;;
50900;SDS011;36879;51.416;6.678;2023-05-25T10:26:20;8.90;;;3.75;;
50900;SDS011;36879;51.416;6.678;2023-05-25T10:28:50;9.25;;;4.28;;
50900;SDS011;36879;51.416;6.678;2023-05-25T10:31:16;10.32;;;4.40;;
50900;SDS011;36879;51.416;6.678;2023-05-25T10:33:43;9.77;;;4.00;;
50900;SDS011;36879;51.416;6.678;2023-05-25T10:36:09;12.52;;;4.28;;
50900;SDS011;36879;51.416;6.678;2023-05-25T10:38:41;12.50;;;5.03;;
50900;SDS011;36879;51.416;6.678;2023-05-25T10:41:09;8.30;;;4.38;;
50900;SDS011;36879;51.416;6.678;2023-05-25T10:43:35;16.70;;;4.07;;
50900;SDS011;36879;51.416;6.678;2023-05-25T10:46:01;8.77;;;4.63;;
50900;SDS011;36879;51.416;6.678;2023-05-25T10:48:37;8.80;;;4.72;;
50900;SDS011;36879;51.416;6.678;2023-05-25T10:53:30;10.15;;;3.50;;
50900;SDS011;36879;51.416;6.678;2023-05-25T10:58:26;16.10;;;4.85;;
50900;SDS011;36879;51.416;6.678;2023-05-25T11:06:12;10.75;;;3.53;;
50900;SDS011;36879;51.416;6.678;2023-05-25T11:11:16;7.00;;;2.95;;
50900;SDS011;36879;51.416;6.678;2023-05-25T11:13:43;8.18;;;2.92;;
50900;SDS011;36879;51.416;6.678;2023-05-25T11:18:45;11.38;;;3.78;;
50900;SDS011;36879;51.416;6.678;2023-05-25T11:21:59;11.05;;;3.15;;
50900;SDS011;36879;51.416;6.678;2023-05-25T11:24:00;11.98;;;3.50;;
50900;SDS011;36879;51.416;6.678;2023-05-25T11:26:27;11.02;;;4.13;;
50900;SDS011;36879;51.416;6.678;2023-05-25T11:30:41;12.18;;;5.00;;
50900;SDS011;36879;51.416;6.678;2023-05-25T11:34:17;10.95;;;3.78;;
50900;SDS011;36879;51.416;6.678;2023-05-25T11:36:45;20.65;;;5.05;;
50900;SDS011;36879;51.416;6.678;2023-05-25T11:39:11;12.68;;;4.28;;
50900;SDS011;36879;51.416;6.678;2023-05-25T11:41:40;13.55;;;4.18;;
50900;SDS011;36879;51.416;6.678;2023-05-25T11:44:11;15.32;;;5.07;;
50900;SDS011;36879;51.416;6.678;2023-05-25T11:46:37;10.07;;;3.65;;
50900;SDS011;36879;51.416;6.678;2023-05-25T11:49:07;16.65;;;4.35;;
50900;SDS011;36879;51.416;6.678;2023-05-25T11:51:33;10.25;;;3.67;;
50900;SDS011;36879;51.416;6.678;2023-05-25T11:54:00;7.30;;;3.35;;
50900;SDS011;36879;51.416;6.678;2023-05-25T11:56:27;11.48;;;4.55;;
50900;SDS011;36879;51.416;6.678;2023-05-25T11:58:57;16.52;;;4.35;;
50900;SDS011;36879;51.416;6.678;2023-05-25T12:01:23;10.95;;;4.18;;
50900;SDS011;36879;51.416;6.678;2023-05-25T12:03:52;8.32;;;3.72;;
50900;SDS011;36879;51.416;6.678;2023-05-25T12:08:50;11.57;;;3.70;;
50900;SDS011;36879;51.416;6.678;2023-05-25T12:11:16;11.48;;;4.07;;
50900;SDS011;36879;51.416;6.678;2023-05-25T12:13:42;12.90;;;4.50;;
50900;SDS011;36879;51.416;6.678;2023-05-25T12:16:08;10.80;;;4.45;;
50900;SDS011;36879;51.416;6.678;2023-05-25T12:18:35;8.27;;;4.00;;
50900;SDS011;36879;51.416;6.678;2023-05-25T12:21:01;13.70;;;4.85;;
50900;SDS011;36879;51.416;6.678;2023-05-25T12:23:32;13.30;;;4.93;;
50900;SDS011;36879;51.416;6.678;2023-05-25T12:26:05;10.23;;;4.93;;
50900;SDS011;36879;51.416;6.678;2023-05-25T12:28:31;8.00;;;3.97;;
50900;SDS011;36879;51.416;6.678;2023-05-25T12:30:57;10.02;;;4.15;;
50900;SDS011;36879;51.416;6.678;2023-05-25T12:33:23;10.00;;;3.90;;
50900;SDS011;36879;51.416;6.678;2023-05-25T12:35:49;10.77;;;3.53;;
50900;SDS011;36879;51.416;6.678;2023-05-25T12:38:17;8.32;;;3.63;;
50900;SDS011;36879;51.416;6.678;2023-05-25T12:40:43;9.25;;;3.03;;
50900;SDS011;36879;51.416;6.678;2023-05-25T12:43:09;10.15;;;4.00;;
50900;SDS011;36879;51.416;6.678;2023-05-25T12:45:39;16.88;;;3.78;;
50900;SDS011;36879;51.416;6.678;2023-05-25T12:48:05;7.78;;;3.25;;
50900;SDS011;36879;51.416;6.678;2023-05-25T12:50:31;7.97;;;2.70;;
50900;SDS011;36879;51.416;6.678;2023-05-25T12:53:01;7.38;;;2.83;;
50900;SDS011;36879;51.416;6.678;2023-05-25T12:55:30;9.65;;;4.05;;
50900;SDS011;36879;51.416;6.678;2023-05-25T12:57:58;9.27;;;4.25;;
50900;SDS011;36879;51.416;6.678;2023-05-25T13:00:32;15.10;;;4.10;;
50900;SDS011;36879;51.416;6.678;2023-05-25T13:02:58;11.43;;;3.58;;
50900;SDS011;36879;51.416;6.678;2023-05-25T13:05:25;6.97;;;3.08;;
50900;SDS011;36879;51.416;6.678;2023-05-25T13:07:54;11.35;;;3.80;;
50900;SDS011;36879;51.416;6.678;2023-05-25T13:10:21;8.07;;;3.40;;
50900;SDS011;36879;51.416;6.678;2023-05-25T13:12:47;6.28;;;3.20;;
50900;SDS011;36879;51.416;6.678;2023-05-25T13:15:15;9.35;;;3.97;;
50900;SDS011;36879;51.416;6.678;2023-05-25T13:17:42;10.13;;;3.15;;
50900;SDS011;36879;51.416;6.678;2023-05-25T13:20:18;7.95;;;3.63;;
50900;SDS011;36879;51.416;6.678;2023-05-25T13:22:44;11.23;;;3.85;;
50900;SDS011;36879;51.416;6.678;2023-05-25T13:25:11;21.15;;;4.22;;
50900;SDS011;36879;51.416;6.678;2023-05-25T13:27:41;15.30;;;5.57;;
50900;SDS011;36879;51.416;6.678;2023-05-25T13:30:08;14.88;;;5.00;;
50900;SDS011;36879;51.416;6.678;2023-05-25T13:32:35;17.42;;;5.30;;
50900;SDS011;36879;51.416;6.678;2023-05-25T13:35:01;8.23;;;3.15;;
50900;SDS011;36879;51.416;6.678;2023-05-25T13:37:28;7.50;;;2.80;;
50900;SDS011;36879;51.416;6.678;2023-05-25T13:39:56;8.15;;;3.70;;
50900;SDS011;36879;51.416;6.678;2023-05-25T13:42:23;6.45;;;2.60;;
50900;SDS011;36879;51.416;6.678;2023-05-25T13:44:49;6.53;;;3.00;;
50900;SDS011;36879;51.416;6.678;2023-05-25T13:47:15;8.70;;;3.85;;
50900;SDS011;36879;51.416;6.678;2023-05-25T13:49:41;8.18;;;3.50;;
50900;SDS011;36879;51.416;6.678;2023-05-25T13:52:07;6.35;;;2.90;;
50900;SDS011;36879;51.416;6.678;2023-05-25T13:54:33;6.25;;;3.22;;
50900;SDS011;36879;51.416;6.678;2023-05-25T13:56:59;7.53;;;3.13;;
50900;SDS011;36879;51.416;6.678;2023-05-25T13:59:25;6.78;;;2.67;;
50900;SDS011;36879;51.416;6.678;2023-05-25T14:01:51;6.03;;;2.67;;
50900;SDS011;36879;51.416;6.678;2023-05-25T14:04:17;9.00;;;3.10;;
50900;SDS011;36879;51.416;6.678;2023-05-25T14:06:43;7.97;;;2.70;;
50900;SDS011;36879;51.416;6.678;2023-05-25T14:09:09;8.70;;;2.47;;
50900;SDS011;36879;51.416;6.678;2023-05-25T14:11:35;7.82;;;2.67;;
50900;SDS011;36879;51.416;6.678;2023-05-25T14:14:02;8.57;;;2.70;;
50900;SDS011;36879;51.416;6.678;2023-05-25T14:16:32;6.93;;;2.65;;
50900;SDS011;36879;51.416;6.678;2023-05-25T14:18:58;7.10;;;2.67;;
50900;SDS011;36879;51.416;6.678;2023-05-25T14:21:24;6.88;;;3.17;;
50900;SDS011;36879;51.416;6.678;2023-05-25T14:23:50;7.00;;;2.83;;
50900;SDS011;36879;51.416;6.678;2023-05-25T14:26:16;8.27;;;3.45;;
50900;SDS011;36879;51.416;6.678;2023-05-25T14:28:42;8.82;;;3.10;;
50900;SDS011;36879;51.416;6.678;2023-05-25T14:31:08;10.20;;;4.00;;
50900;SDS011;36879;51.416;6.678;2023-05-25T14:33:34;7.93;;;2.83;;
50900;SDS011;36879;51.416;6.678;2023-05-25T14:36:00;5.85;;;3.05;;
50900;SDS011;36879;51.416;6.678;2023-05-25T14:38:26;8.13;;;2.80;;
50900;SDS011;36879;51.416;6.678;2023-05-25T14:40:54;7.43;;;3.05;;
50900;SDS011;36879;51.416;6.678;2023-05-25T14:43:20;6.40;;;2.70;;
50900;SDS011;36879;51.416;6.678;2023-05-25T14:45:46;5.72;;;3.50;;
50900;SDS011;36879;51.416;6.678;2023-05-25T14:48:12;9.93;;;3.05;;
50900;SDS011;36879;51.416;6.678;2023-05-25T14:50:38;8.93;;;3.20;;
50900;SDS011;36879;51.416;6.678;2023-05-25T14:53:05;8.60;;;3.13;;
50900;SDS011;36879;51.416;6.678;2023-05-25T14:55:31;6.57;;;2.30;;
50900;SDS011;36879;51.416;6.678;2023-05-25T14:57:57;11.15;;;3.00;;
50900;SDS011;36879;51.416;6.678;2023-05-25T15:00:23;8.73;;;3.55;;
50900;SDS011;36879;51.416;6.678;2023-05-25T15:02:49;11.20;;;3.30;;